RYR3ES LEMG-GCRR
Flight info
| Callsign | RYR3ES |
|---|---|
| Flight time | 2h 0m |
| Altitude | 31000 |
| Route | PIMOS N869 GALTO UN869 PELAX UB11 MABAP UN869 ADM UG850 DEVLA |
| Aircraft | B738/M-SDE2E3FGHIRWXY/LB1 |
Departure
| Time | 2026-05-06 12:01 |
|---|---|
| Airport | Málaga-Costa del Sol Airport (LEMG) |
Arrival
| Time | 2026-05-06 14:01 |
|---|---|
| Airport | César Manrique-Lanzarote Airport (GCRR) |
| Time | Latitude | Longitude | Altitude | Speed | Heading |
|---|---|---|---|---|---|
| 2026-05-06 11:30 | 36.67866 | -4.49457 | 41 ft | 0 kts | 212° |
| 2026-05-06 11:51 | 36.67868 | -4.49455 | 41 ft | 3 kts | 212° |
| 2026-05-06 11:52 | 36.67891 | -4.49439 | 38 ft | 4 kts | 220° |
| 2026-05-06 11:52 | 36.67900 | -4.49418 | 41 ft | 4 kts | 255° |
| 2026-05-06 11:52 | 36.67898 | -4.49397 | 41 ft | 4 kts | 301° |
| 2026-05-06 11:52 | 36.67889 | -4.49381 | 41 ft | 0 kts | 311° |
| 2026-05-06 11:54 | 36.67893 | -4.49387 | 41 ft | 2 kts | 311° |
| 2026-05-06 11:55 | 36.67914 | -4.49416 | 41 ft | 7 kts | 311° |
| 2026-05-06 11:55 | 36.67951 | -4.49469 | 40 ft | 8 kts | 312° |
| 2026-05-06 11:55 | 36.67994 | -4.49528 | 41 ft | 8 kts | 312° |
| 2026-05-06 11:55 | 36.68014 | -4.49603 | 41 ft | 11 kts | 249° |
| 2026-05-06 11:56 | 36.67954 | -4.49681 | 41 ft | 14 kts | 222° |
| 2026-05-06 11:56 | 36.67873 | -4.49771 | 41 ft | 17 kts | 221° |
| 2026-05-06 11:56 | 36.67789 | -4.49856 | 41 ft | 14 kts | 205° |
| 2026-05-06 11:56 | 36.67724 | -4.49924 | 42 ft | 14 kts | 276° |
| 2026-05-06 11:57 | 36.67777 | -4.50017 | 43 ft | 13 kts | 310° |
| 2026-05-06 11:57 | 36.67852 | -4.50120 | 43 ft | 20 kts | 312° |
| 2026-05-06 11:57 | 36.67957 | -4.50268 | 43 ft | 26 kts | 312° |
| 2026-05-06 11:57 | 36.68067 | -4.50422 | 43 ft | 20 kts | 311° |
| 2026-05-06 11:58 | 36.68157 | -4.50549 | 44 ft | 19 kts | 312° |
| 2026-05-06 11:58 | 36.68246 | -4.50674 | 44 ft | 19 kts | 311° |
| 2026-05-06 11:58 | 36.68332 | -4.50793 | 47 ft | 18 kts | 311° |
| 2026-05-06 11:58 | 36.68415 | -4.50909 | 49 ft | 18 kts | 312° |
| 2026-05-06 11:59 | 36.68487 | -4.51012 | 52 ft | 11 kts | 308° |
| 2026-05-06 11:59 | 36.68498 | -4.51102 | 52 ft | 11 kts | 253° |
| 2026-05-06 11:59 | 36.68473 | -4.51189 | 59 ft | 10 kts | 240° |
| 2026-05-06 11:59 | 36.68412 | -4.51198 | 54 ft | 10 kts | 147° |
| 2026-05-06 12:00 | 36.68362 | -4.51131 | 60 ft | 16 kts | 131° |
| 2026-05-06 12:00 | 36.68117 | -4.50788 | 55 ft | 91 kts | 131° |
| 2026-05-06 12:00 | 36.67548 | -4.49990 | 52 ft | 154 kts | 131° |
| 2026-05-06 12:00 | 36.66795 | -4.48940 | 602 ft | 169 kts | 132° |
| 2026-05-06 12:01 | 36.65997 | -4.47823 | 1361 ft | 177 kts | 133° |
| 2026-05-06 12:01 | 36.65100 | -4.46572 | 1777 ft | 212 kts | 132° |
| 2026-05-06 12:01 | 36.64072 | -4.45136 | 2205 ft | 228 kts | 132° |
| 2026-05-06 12:01 | 36.62864 | -4.43824 | 2829 ft | 234 kts | 155° |
| 2026-05-06 12:02 | 36.61290 | -4.43348 | 3580 ft | 236 kts | 181° |
| 2026-05-06 12:02 | 36.59691 | -4.43738 | 4430 ft | 235 kts | 198° |
| 2026-05-06 12:02 | 36.58118 | -4.44325 | 5230 ft | 238 kts | 197° |
| 2026-05-06 12:02 | 36.56517 | -4.44918 | 6043 ft | 241 kts | 197° |
| 2026-05-06 12:03 | 36.54907 | -4.45509 | 6827 ft | 243 kts | 197° |
| 2026-05-06 12:03 | 36.53335 | -4.46262 | 7595 ft | 244 kts | 215° |
| 2026-05-06 12:03 | 36.51974 | -4.47663 | 7958 ft | 266 kts | 223° |
| 2026-05-06 12:03 | 36.50578 | -4.49256 | 8565 ft | 276 kts | 224° |
| 2026-05-06 12:04 | 36.49163 | -4.50884 | 9402 ft | 278 kts | 224° |
| 2026-05-06 12:04 | 36.47734 | -4.52523 | 10209 ft | 281 kts | 223° |
| 2026-05-06 12:04 | 36.46249 | -4.54220 | 10550 ft | 302 kts | 223° |
| 2026-05-06 12:04 | 36.44633 | -4.56058 | 10735 ft | 326 kts | 223° |
| 2026-05-06 12:05 | 36.42932 | -4.57985 | 11109 ft | 342 kts | 223° |
| 2026-05-06 12:05 | 36.41154 | -4.59993 | 11734 ft | 348 kts | 223° |
| 2026-05-06 12:05 | 36.39356 | -4.62017 | 12491 ft | 350 kts | 223° |
| 2026-05-06 12:05 | 36.37540 | -4.64060 | 13246 ft | 354 kts | 223° |
| 2026-05-06 12:06 | 36.35708 | -4.66119 | 13943 ft | 358 kts | 223° |
| 2026-05-06 12:06 | 36.33856 | -4.68198 | 14613 ft | 360 kts | 223° |
| 2026-05-06 12:06 | 36.31992 | -4.70290 | 15298 ft | 363 kts | 223° |
| 2026-05-06 12:06 | 36.30114 | -4.72396 | 15973 ft | 365 kts | 223° |
| 2026-05-06 12:07 | 36.28217 | -4.74522 | 16639 ft | 368 kts | 223° |
| 2026-05-06 12:07 | 36.26308 | -4.76661 | 17288 ft | 371 kts | 223° |
| 2026-05-06 12:07 | 36.24381 | -4.78817 | 17933 ft | 375 kts | 223° |
| 2026-05-06 12:07 | 36.22440 | -4.80989 | 18515 ft | 378 kts | 223° |
| 2026-05-06 12:08 | 36.20484 | -4.83176 | 19109 ft | 379 kts | 224° |
| 2026-05-06 12:08 | 36.18525 | -4.85365 | 19721 ft | 380 kts | 224° |
| 2026-05-06 12:08 | 36.16564 | -4.87553 | 20343 ft | 380 kts | 224° |
| 2026-05-06 12:08 | 36.14568 | -4.89722 | 20931 ft | 383 kts | 220° |
| 2026-05-06 12:09 | 36.12397 | -4.91641 | 21487 ft | 386 kts | 216° |
| 2026-05-06 12:09 | 36.10121 | -4.93420 | 22040 ft | 388 kts | 214° |
| 2026-05-06 12:09 | 36.07813 | -4.95166 | 22579 ft | 390 kts | 214° |
| 2026-05-06 12:09 | 36.05499 | -4.96927 | 23118 ft | 391 kts | 215° |
| 2026-05-06 12:10 | 36.03183 | -4.98713 | 23626 ft | 393 kts | 215° |
| 2026-05-06 12:10 | 36.00873 | -5.00519 | 24060 ft | 394 kts | 216° |
| 2026-05-06 12:10 | 35.98555 | -5.02345 | 24483 ft | 396 kts | 216° |
| 2026-05-06 12:10 | 35.96232 | -5.04182 | 24888 ft | 398 kts | 216° |
| 2026-05-06 12:11 | 35.93898 | -5.06029 | 25313 ft | 399 kts | 216° |
| 2026-05-06 12:11 | 35.91569 | -5.07871 | 25853 ft | 396 kts | 216° |
| 2026-05-06 12:11 | 35.89259 | -5.09696 | 26473 ft | 392 kts | 216° |
| 2026-05-06 12:11 | 35.86968 | -5.11504 | 27041 ft | 390 kts | 216° |
| 2026-05-06 12:12 | 35.84686 | -5.13304 | 27538 ft | 389 kts | 216° |
| 2026-05-06 12:12 | 35.82437 | -5.15146 | 28026 ft | 387 kts | 219° |
| 2026-05-06 12:12 | 35.80272 | -5.17101 | 28548 ft | 385 kts | 219° |
| 2026-05-06 12:12 | 35.78162 | -5.19053 | 29097 ft | 382 kts | 220° |
| 2026-05-06 12:13 | 35.76046 | -5.21024 | 29618 ft | 381 kts | 220° |
| 2026-05-06 12:13 | 35.73935 | -5.22989 | 30077 ft | 380 kts | 220° |
| 2026-05-06 12:13 | 35.71827 | -5.24946 | 30501 ft | 378 kts | 220° |
| 2026-05-06 12:13 | 35.69730 | -5.26886 | 30899 ft | 378 kts | 220° |
| 2026-05-06 12:14 | 35.65458 | -5.30826 | 30945 ft | 390 kts | 220° |
| 2026-05-06 12:14 | 35.61034 | -5.34895 | 30947 ft | 403 kts | 219° |
| 2026-05-06 12:15 | 35.56474 | -5.39075 | 30957 ft | 414 kts | 219° |
| 2026-05-06 12:15 | 35.51789 | -5.43363 | 30948 ft | 425 kts | 219° |
| 2026-05-06 12:16 | 35.47004 | -5.47735 | 30934 ft | 432 kts | 219° |
| 2026-05-06 12:16 | 35.42165 | -5.52148 | 30938 ft | 434 kts | 219° |
| 2026-05-06 12:17 | 35.37319 | -5.56560 | 30942 ft | 434 kts | 219° |
| 2026-05-06 12:17 | 35.32471 | -5.60970 | 30941 ft | 434 kts | 219° |
| 2026-05-06 12:18 | 35.27649 | -5.65351 | 30951 ft | 434 kts | 219° |
| 2026-05-06 12:18 | 35.22803 | -5.69746 | 30956 ft | 433 kts | 219° |
| 2026-05-06 12:19 | 35.17958 | -5.74133 | 30962 ft | 433 kts | 219° |
| 2026-05-06 12:19 | 35.13112 | -5.78516 | 30961 ft | 433 kts | 219° |
| 2026-05-06 12:20 | 35.08268 | -5.82888 | 30956 ft | 433 kts | 219° |
| 2026-05-06 12:20 | 35.03428 | -5.87252 | 30960 ft | 432 kts | 219° |
| 2026-05-06 12:21 | 34.98591 | -5.91606 | 30958 ft | 432 kts | 219° |
| 2026-05-06 12:21 | 34.93753 | -5.95954 | 30957 ft | 432 kts | 219° |
| 2026-05-06 12:22 | 34.88916 | -6.00295 | 30956 ft | 432 kts | 219° |
| 2026-05-06 12:22 | 34.84072 | -6.04636 | 30955 ft | 432 kts | 219° |
| 2026-05-06 12:23 | 34.79229 | -6.08969 | 30954 ft | 432 kts | 219° |
| 2026-05-06 12:23 | 34.74408 | -6.13276 | 30955 ft | 432 kts | 219° |
| 2026-05-06 12:24 | 34.69563 | -6.17599 | 30955 ft | 432 kts | 219° |
| 2026-05-06 12:24 | 34.65523 | -6.21198 | 30953 ft | 433 kts | 219° |
| 2026-05-06 12:25 | 34.60667 | -6.25518 | 30955 ft | 433 kts | 219° |
| 2026-05-06 12:25 | 34.55802 | -6.29840 | 30951 ft | 433 kts | 219° |
| 2026-05-06 12:26 | 34.50937 | -6.34156 | 30949 ft | 433 kts | 219° |
| 2026-05-06 12:26 | 34.46068 | -6.38469 | 30955 ft | 433 kts | 219° |
| 2026-05-06 12:27 | 34.41231 | -6.42746 | 30954 ft | 433 kts | 219° |
| 2026-05-06 12:27 | 34.36361 | -6.47048 | 30954 ft | 433 kts | 219° |
| 2026-05-06 12:28 | 34.31487 | -6.51346 | 30960 ft | 434 kts | 219° |
| 2026-05-06 12:28 | 34.26607 | -6.55643 | 30962 ft | 434 kts | 219° |
| 2026-05-06 12:29 | 34.21726 | -6.59935 | 30958 ft | 434 kts | 219° |
| 2026-05-06 12:29 | 34.16840 | -6.64225 | 30958 ft | 434 kts | 219° |
| 2026-05-06 12:30 | 34.11985 | -6.68483 | 30966 ft | 434 kts | 218° |
| 2026-05-06 12:30 | 34.07101 | -6.72761 | 30968 ft | 434 kts | 218° |
| 2026-05-06 12:31 | 34.02183 | -6.76988 | 30961 ft | 434 kts | 217° |
| 2026-05-06 12:31 | 33.97187 | -6.81081 | 30967 ft | 434 kts | 217° |
| 2026-05-06 12:32 | 33.92188 | -6.85154 | 30972 ft | 434 kts | 217° |
| 2026-05-06 12:32 | 33.87195 | -6.89237 | 30967 ft | 434 kts | 217° |
| 2026-05-06 12:33 | 33.82208 | -6.93324 | 30955 ft | 434 kts | 217° |
| 2026-05-06 12:33 | 33.77256 | -6.97378 | 30980 ft | 433 kts | 217° |
| 2026-05-06 12:34 | 33.72273 | -7.01453 | 30981 ft | 433 kts | 217° |
| 2026-05-06 12:34 | 33.67290 | -7.05521 | 30989 ft | 433 kts | 217° |
| 2026-05-06 12:35 | 33.62325 | -7.09568 | 30993 ft | 432 kts | 217° |
| 2026-05-06 12:35 | 33.57349 | -7.13619 | 30991 ft | 432 kts | 217° |
| 2026-05-06 12:36 | 33.52366 | -7.17669 | 30989 ft | 432 kts | 217° |
| 2026-05-06 12:36 | 33.47388 | -7.21710 | 30987 ft | 432 kts | 217° |
| 2026-05-06 12:37 | 33.42417 | -7.25740 | 30987 ft | 432 kts | 217° |
| 2026-05-06 12:37 | 33.37443 | -7.29766 | 30983 ft | 431 kts | 217° |
| 2026-05-06 12:38 | 33.32508 | -7.33755 | 30990 ft | 431 kts | 217° |
| 2026-05-06 12:38 | 33.27538 | -7.37768 | 30982 ft | 431 kts | 217° |
| 2026-05-06 12:39 | 33.22570 | -7.41772 | 30988 ft | 430 kts | 217° |
| 2026-05-06 12:39 | 33.17605 | -7.45771 | 30986 ft | 430 kts | 217° |
| 2026-05-06 12:40 | 33.12639 | -7.49764 | 30983 ft | 430 kts | 217° |
| 2026-05-06 12:40 | 33.07549 | -7.53537 | 30988 ft | 431 kts | 214° |
| 2026-05-06 12:41 | 33.02358 | -7.57134 | 30972 ft | 431 kts | 214° |
| 2026-05-06 12:41 | 32.97179 | -7.60740 | 30976 ft | 431 kts | 214° |
| 2026-05-06 12:42 | 32.92013 | -7.64362 | 30973 ft | 431 kts | 214° |
| 2026-05-06 12:42 | 32.86845 | -7.67987 | 30973 ft | 431 kts | 214° |
| 2026-05-06 12:43 | 32.81692 | -7.71608 | 30971 ft | 430 kts | 214° |
| 2026-05-06 12:43 | 32.76584 | -7.75218 | 30972 ft | 429 kts | 214° |
| 2026-05-06 12:44 | 32.71455 | -7.78837 | 30969 ft | 428 kts | 214° |
| 2026-05-06 12:44 | 32.66336 | -7.82433 | 30970 ft | 427 kts | 214° |
| 2026-05-06 12:45 | 32.61219 | -7.85989 | 30964 ft | 425 kts | 214° |
| 2026-05-06 12:46 | 32.53571 | -7.91290 | 30963 ft | 424 kts | 214° |
| 2026-05-06 12:46 | 32.48490 | -7.94810 | 30973 ft | 422 kts | 214° |
| 2026-05-06 12:47 | 32.43429 | -7.98314 | 30964 ft | 421 kts | 214° |
| 2026-05-06 12:47 | 32.38382 | -8.01803 | 30962 ft | 419 kts | 215° |
| 2026-05-06 12:48 | 32.33358 | -8.05272 | 30960 ft | 417 kts | 215° |
| 2026-05-06 12:48 | 32.28359 | -8.08720 | 30962 ft | 415 kts | 215° |
| 2026-05-06 12:49 | 32.23382 | -8.12148 | 30961 ft | 413 kts | 215° |
| 2026-05-06 12:49 | 32.18427 | -8.15558 | 30964 ft | 411 kts | 215° |
| 2026-05-06 12:50 | 32.13522 | -8.18927 | 30962 ft | 410 kts | 215° |
| 2026-05-06 12:50 | 32.08591 | -8.22278 | 30959 ft | 408 kts | 215° |
| 2026-05-06 12:51 | 32.03653 | -8.25585 | 30959 ft | 407 kts | 215° |
| 2026-05-06 12:51 | 31.98737 | -8.28874 | 30960 ft | 405 kts | 215° |
| 2026-05-06 12:52 | 31.93844 | -8.32150 | 30958 ft | 404 kts | 215° |
| 2026-05-06 12:52 | 31.88961 | -8.35418 | 30956 ft | 403 kts | 215° |
| 2026-05-06 12:53 | 31.84126 | -8.38651 | 30958 ft | 401 kts | 215° |
| 2026-05-06 12:53 | 31.79275 | -8.41890 | 30949 ft | 400 kts | 215° |
| 2026-05-06 12:54 | 31.74441 | -8.45115 | 30954 ft | 399 kts | 215° |
| 2026-05-06 12:54 | 31.69621 | -8.48325 | 30947 ft | 397 kts | 216° |
| 2026-05-06 12:55 | 31.64820 | -8.51520 | 30949 ft | 396 kts | 216° |
| 2026-05-06 12:55 | 31.60035 | -8.54700 | 30959 ft | 395 kts | 216° |
| 2026-05-06 12:56 | 31.55267 | -8.57865 | 30947 ft | 393 kts | 216° |
| 2026-05-06 12:56 | 31.50507 | -8.61021 | 30948 ft | 392 kts | 216° |
| 2026-05-06 12:57 | 31.45765 | -8.64161 | 30952 ft | 391 kts | 216° |
| 2026-05-06 12:57 | 31.41036 | -8.67289 | 30954 ft | 390 kts | 216° |
| 2026-05-06 12:58 | 31.36319 | -8.70405 | 30956 ft | 389 kts | 216° |
| 2026-05-06 12:58 | 31.31620 | -8.73506 | 30954 ft | 387 kts | 216° |
| 2026-05-06 12:59 | 31.26962 | -8.76577 | 30953 ft | 386 kts | 216° |
| 2026-05-06 12:59 | 31.22289 | -8.79653 | 30953 ft | 385 kts | 216° |
| 2026-05-06 13:00 | 31.17625 | -8.82721 | 30952 ft | 384 kts | 216° |
| 2026-05-06 13:00 | 31.12963 | -8.85784 | 30947 ft | 385 kts | 216° |
| 2026-05-06 13:01 | 31.08300 | -8.88844 | 30945 ft | 384 kts | 216° |
| 2026-05-06 13:01 | 31.03637 | -8.91900 | 30937 ft | 385 kts | 216° |
| 2026-05-06 13:02 | 30.98962 | -8.94961 | 30940 ft | 386 kts | 216° |
| 2026-05-06 13:02 | 30.94285 | -8.98019 | 30926 ft | 385 kts | 216° |
| 2026-05-06 13:03 | 30.89635 | -9.01057 | 30915 ft | 385 kts | 215° |
| 2026-05-06 13:03 | 30.84962 | -9.04105 | 30922 ft | 385 kts | 215° |
| 2026-05-06 13:04 | 30.80292 | -9.07149 | 30910 ft | 384 kts | 215° |
| 2026-05-06 13:04 | 30.75623 | -9.10189 | 30910 ft | 384 kts | 215° |
| 2026-05-06 13:05 | 30.70955 | -9.13225 | 30906 ft | 384 kts | 215° |
| 2026-05-06 13:05 | 30.66273 | -9.16266 | 30898 ft | 386 kts | 215° |
| 2026-05-06 13:06 | 30.61603 | -9.19296 | 30897 ft | 387 kts | 215° |
| 2026-05-06 13:06 | 30.56903 | -9.22341 | 30890 ft | 387 kts | 215° |
| 2026-05-06 13:07 | 30.52203 | -9.25384 | 30901 ft | 387 kts | 215° |
| 2026-05-06 13:07 | 30.47509 | -9.28421 | 30901 ft | 386 kts | 215° |
| 2026-05-06 13:08 | 30.42808 | -9.31458 | 30911 ft | 387 kts | 215° |
| 2026-05-06 13:08 | 30.38105 | -9.34493 | 30910 ft | 387 kts | 214° |
| 2026-05-06 13:09 | 30.33891 | -9.38209 | 30919 ft | 379 kts | 230° |
| 2026-05-06 13:09 | 30.30781 | -9.43112 | 30907 ft | 379 kts | 241° |
| 2026-05-06 13:10 | 30.28907 | -9.48790 | 30915 ft | 381 kts | 248° |
| 2026-05-06 13:10 | 30.27153 | -9.54587 | 30912 ft | 382 kts | 248° |
| 2026-05-06 13:11 | 30.25376 | -9.60381 | 30907 ft | 382 kts | 247° |
| 2026-05-06 13:11 | 30.23584 | -9.66168 | 30919 ft | 382 kts | 247° |
| 2026-05-06 13:12 | 30.21789 | -9.71949 | 30923 ft | 382 kts | 247° |
| 2026-05-06 13:12 | 30.19988 | -9.77738 | 30933 ft | 382 kts | 247° |
| 2026-05-06 13:13 | 30.18185 | -9.83524 | 30939 ft | 383 kts | 247° |
| 2026-05-06 13:13 | 30.16443 | -9.89293 | 30943 ft | 383 kts | 248° |
| 2026-05-06 13:14 | 30.14717 | -9.95119 | 30951 ft | 383 kts | 248° |
| 2026-05-06 13:14 | 30.12983 | -10.00941 | 30956 ft | 383 kts | 248° |
| 2026-05-06 13:15 | 30.11242 | -10.06763 | 30957 ft | 384 kts | 248° |
| 2026-05-06 13:15 | 30.09496 | -10.12588 | 30956 ft | 384 kts | 248° |
| 2026-05-06 13:16 | 30.07747 | -10.18410 | 30962 ft | 384 kts | 248° |
| 2026-05-06 13:16 | 30.06266 | -10.23244 | 30966 ft | 384 kts | 247° |
| 2026-05-06 13:17 | 30.04431 | -10.29029 | 30969 ft | 384 kts | 247° |
| 2026-05-06 13:17 | 30.02587 | -10.34816 | 30972 ft | 384 kts | 247° |
| 2026-05-06 13:18 | 30.00769 | -10.40533 | 30968 ft | 384 kts | 247° |
| 2026-05-06 13:18 | 29.98927 | -10.46324 | 30972 ft | 385 kts | 247° |
| 2026-05-06 13:19 | 29.97084 | -10.52114 | 30974 ft | 385 kts | 247° |
| 2026-05-06 13:19 | 29.95237 | -10.57911 | 30974 ft | 385 kts | 246° |
| 2026-05-06 13:20 | 29.93387 | -10.63704 | 30980 ft | 385 kts | 246° |
| 2026-05-06 13:20 | 29.91534 | -10.69497 | 30979 ft | 385 kts | 246° |
| 2026-05-06 13:21 | 29.89677 | -10.75292 | 30984 ft | 385 kts | 246° |
| 2026-05-06 13:21 | 29.87817 | -10.81088 | 30985 ft | 386 kts | 246° |
| 2026-05-06 13:22 | 29.85954 | -10.86882 | 30986 ft | 386 kts | 246° |
| 2026-05-06 13:22 | 29.84087 | -10.92677 | 30991 ft | 386 kts | 246° |
| 2026-05-06 13:23 | 29.82217 | -10.98471 | 30995 ft | 386 kts | 246° |
| 2026-05-06 13:23 | 29.80357 | -11.04228 | 30995 ft | 386 kts | 246° |
| 2026-05-06 13:24 | 29.78481 | -11.10022 | 30994 ft | 386 kts | 246° |
| 2026-05-06 13:24 | 29.76602 | -11.15815 | 30995 ft | 386 kts | 246° |
| 2026-05-06 13:25 | 29.74720 | -11.21609 | 30997 ft | 386 kts | 246° |
| 2026-05-06 13:25 | 29.72835 | -11.27402 | 30999 ft | 387 kts | 246° |
| 2026-05-06 13:26 | 29.70946 | -11.33194 | 31000 ft | 387 kts | 246° |
| 2026-05-06 13:26 | 29.69054 | -11.38988 | 31003 ft | 387 kts | 246° |
| 2026-05-06 13:27 | 29.67159 | -11.44781 | 31003 ft | 387 kts | 246° |
| 2026-05-06 13:27 | 29.65259 | -11.50579 | 31007 ft | 388 kts | 246° |
| 2026-05-06 13:28 | 29.63356 | -11.56379 | 31006 ft | 388 kts | 246° |
| 2026-05-06 13:28 | 29.61447 | -11.62184 | 31007 ft | 388 kts | 246° |
| 2026-05-06 13:29 | 29.59535 | -11.67990 | 31006 ft | 389 kts | 246° |
| 2026-05-06 13:29 | 29.57618 | -11.73801 | 31004 ft | 385 kts | 246° |
| 2026-05-06 13:29 | 29.56707 | -11.76567 | 30996 ft | 366 kts | 246° |
| 2026-05-06 13:30 | 29.55827 | -11.79242 | 30993 ft | 350 kts | 246° |
| 2026-05-06 13:30 | 29.54985 | -11.81796 | 30994 ft | 335 kts | 246° |
| 2026-05-06 13:30 | 29.54177 | -11.84241 | 30940 ft | 322 kts | 245° |
| 2026-05-06 13:30 | 29.53390 | -11.86617 | 30728 ft | 314 kts | 246° |
| 2026-05-06 13:31 | 29.52617 | -11.88944 | 30383 ft | 310 kts | 246° |
| 2026-05-06 13:31 | 29.51853 | -11.91241 | 30067 ft | 306 kts | 246° |
| 2026-05-06 13:31 | 29.51096 | -11.93517 | 29678 ft | 303 kts | 246° |
| 2026-05-06 13:31 | 29.50350 | -11.95758 | 29314 ft | 298 kts | 246° |
| 2026-05-06 13:32 | 29.49615 | -11.97967 | 28962 ft | 294 kts | 246° |
| 2026-05-06 13:32 | 29.48888 | -12.00152 | 28616 ft | 291 kts | 246° |
| 2026-05-06 13:32 | 29.48166 | -12.02317 | 28268 ft | 289 kts | 246° |
| 2026-05-06 13:32 | 29.47449 | -12.04469 | 27919 ft | 288 kts | 246° |
| 2026-05-06 13:33 | 29.46727 | -12.06632 | 27607 ft | 295 kts | 247° |
| 2026-05-06 13:33 | 29.45977 | -12.08873 | 27252 ft | 303 kts | 247° |
| 2026-05-06 13:33 | 29.45226 | -12.11124 | 26885 ft | 301 kts | 247° |
| 2026-05-06 13:33 | 29.44481 | -12.13357 | 26551 ft | 298 kts | 247° |
| 2026-05-06 13:34 | 29.43742 | -12.15568 | 26215 ft | 297 kts | 248° |
| 2026-05-06 13:34 | 29.43014 | -12.17747 | 25890 ft | 295 kts | 248° |
| 2026-05-06 13:34 | 29.42278 | -12.19948 | 25561 ft | 297 kts | 248° |
| 2026-05-06 13:34 | 29.41525 | -12.22196 | 25244 ft | 306 kts | 248° |
| 2026-05-06 13:35 | 29.40755 | -12.24494 | 24900 ft | 309 kts | 248° |
| 2026-05-06 13:35 | 29.39986 | -12.26787 | 24555 ft | 307 kts | 248° |
| 2026-05-06 13:35 | 29.39220 | -12.29071 | 24209 ft | 306 kts | 249° |
| 2026-05-06 13:35 | 29.38459 | -12.31342 | 23872 ft | 305 kts | 249° |
| 2026-05-06 13:36 | 29.37693 | -12.33621 | 23512 ft | 307 kts | 249° |
| 2026-05-06 13:36 | 29.36926 | -12.35905 | 23121 ft | 307 kts | 249° |
| 2026-05-06 13:36 | 29.36159 | -12.38188 | 22765 ft | 307 kts | 249° |
| 2026-05-06 13:36 | 29.35389 | -12.40476 | 22420 ft | 308 kts | 249° |
| 2026-05-06 13:37 | 29.34617 | -12.42768 | 22079 ft | 307 kts | 249° |
| 2026-05-06 13:37 | 29.33850 | -12.45043 | 21738 ft | 305 kts | 249° |
| 2026-05-06 13:37 | 29.33090 | -12.47299 | 21415 ft | 302 kts | 249° |
| 2026-05-06 13:37 | 29.32334 | -12.49540 | 21081 ft | 300 kts | 249° |
| 2026-05-06 13:38 | 29.31584 | -12.51761 | 20759 ft | 298 kts | 249° |
| 2026-05-06 13:38 | 29.30838 | -12.53969 | 20441 ft | 296 kts | 249° |
| 2026-05-06 13:38 | 29.30106 | -12.56135 | 20121 ft | 294 kts | 249° |
| 2026-05-06 13:38 | 29.29369 | -12.58313 | 19803 ft | 293 kts | 249° |
| 2026-05-06 13:39 | 29.28636 | -12.60481 | 19491 ft | 292 kts | 249° |
| 2026-05-06 13:39 | 29.27899 | -12.62658 | 19173 ft | 294 kts | 250° |
| 2026-05-06 13:39 | 29.27159 | -12.64844 | 18859 ft | 295 kts | 249° |
| 2026-05-06 13:39 | 29.26418 | -12.67030 | 18535 ft | 294 kts | 250° |
| 2026-05-06 13:40 | 29.25678 | -12.69209 | 18200 ft | 293 kts | 250° |
| 2026-05-06 13:40 | 29.24942 | -12.71374 | 17839 ft | 291 kts | 249° |
| 2026-05-06 13:40 | 29.24123 | -12.73489 | 17502 ft | 290 kts | 245° |
| 2026-05-06 13:40 | 29.23214 | -12.75542 | 17178 ft | 288 kts | 244° |
| 2026-05-06 13:41 | 29.22291 | -12.77571 | 16857 ft | 286 kts | 244° |
| 2026-05-06 13:41 | 29.21375 | -12.79587 | 16541 ft | 284 kts | 244° |
| 2026-05-06 13:41 | 29.20469 | -12.81593 | 16233 ft | 283 kts | 244° |
| 2026-05-06 13:41 | 29.19583 | -12.83565 | 15924 ft | 281 kts | 244° |
| 2026-05-06 13:42 | 29.18692 | -12.85553 | 15620 ft | 280 kts | 244° |
| 2026-05-06 13:42 | 29.17817 | -12.87511 | 15321 ft | 281 kts | 245° |
| 2026-05-06 13:42 | 29.16927 | -12.89506 | 15014 ft | 283 kts | 245° |
| 2026-05-06 13:42 | 29.16029 | -12.91518 | 14706 ft | 283 kts | 245° |
| 2026-05-06 13:43 | 29.15136 | -12.93519 | 14391 ft | 282 kts | 245° |
| 2026-05-06 13:43 | 29.14247 | -12.95512 | 14081 ft | 281 kts | 245° |
| 2026-05-06 13:43 | 29.13359 | -12.97502 | 13760 ft | 280 kts | 245° |
| 2026-05-06 13:43 | 29.12475 | -12.99485 | 13430 ft | 279 kts | 245° |
| 2026-05-06 13:44 | 29.11593 | -13.01459 | 13106 ft | 278 kts | 245° |
| 2026-05-06 13:44 | 29.10713 | -13.03426 | 12793 ft | 277 kts | 245° |
| 2026-05-06 13:44 | 29.09840 | -13.05377 | 12494 ft | 275 kts | 244° |
| 2026-05-06 13:44 | 29.08974 | -13.07311 | 12279 ft | 270 kts | 244° |
| 2026-05-06 13:45 | 29.08119 | -13.09219 | 12004 ft | 271 kts | 244° |
| 2026-05-06 13:45 | 29.06387 | -13.13079 | 11418 ft | 273 kts | 244° |
| 2026-05-06 13:45 | 29.05523 | -13.15003 | 11108 ft | 272 kts | 244° |
| 2026-05-06 13:46 | 29.04661 | -13.16923 | 10803 ft | 271 kts | 244° |
| 2026-05-06 13:46 | 29.03802 | -13.18834 | 10500 ft | 270 kts | 244° |
| 2026-05-06 13:46 | 29.02945 | -13.20742 | 10217 ft | 269 kts | 244° |
| 2026-05-06 13:46 | 29.02103 | -13.22615 | 10069 ft | 263 kts | 244° |
| 2026-05-06 13:47 | 29.01269 | -13.24469 | 9757 ft | 262 kts | 244° |
| 2026-05-06 13:47 | 29.00439 | -13.26313 | 9462 ft | 260 kts | 244° |
| 2026-05-06 13:47 | 28.99611 | -13.28151 | 9170 ft | 260 kts | 245° |
| 2026-05-06 13:47 | 28.98780 | -13.29976 | 8875 ft | 259 kts | 241° |
| 2026-05-06 13:48 | 28.97616 | -13.31441 | 8594 ft | 262 kts | 218° |
| 2026-05-06 13:48 | 28.95972 | -13.32344 | 8401 ft | 262 kts | 201° |
| 2026-05-06 13:48 | 28.94251 | -13.32977 | 8294 ft | 259 kts | 201° |
| 2026-05-06 13:48 | 28.92551 | -13.33604 | 8129 ft | 254 kts | 201° |
| 2026-05-06 13:49 | 28.90872 | -13.34140 | 7990 ft | 250 kts | 188° |
| 2026-05-06 13:49 | 28.89160 | -13.33900 | 7921 ft | 249 kts | 163° |
| 2026-05-06 13:49 | 28.87573 | -13.33100 | 7951 ft | 252 kts | 156° |
| 2026-05-06 13:49 | 28.85987 | -13.32175 | 7967 ft | 259 kts | 155° |
| 2026-05-06 13:50 | 28.84368 | -13.31230 | 7973 ft | 262 kts | 156° |
| 2026-05-06 13:50 | 28.82725 | -13.30371 | 7921 ft | 256 kts | 169° |
| 2026-05-06 13:50 | 28.81030 | -13.30440 | 7628 ft | 247 kts | 206° |
| 2026-05-06 13:50 | 28.79616 | -13.31489 | 7371 ft | 243 kts | 224° |
| 2026-05-06 13:51 | 28.78359 | -13.32788 | 7002 ft | 244 kts | 227° |
| 2026-05-06 13:51 | 28.77125 | -13.34126 | 6568 ft | 245 kts | 227° |
| 2026-05-06 13:51 | 28.75896 | -13.35450 | 6321 ft | 238 kts | 227° |
| 2026-05-06 13:51 | 28.74701 | -13.36722 | 6136 ft | 233 kts | 226° |
| 2026-05-06 13:52 | 28.73512 | -13.37976 | 5976 ft | 233 kts | 226° |
| 2026-05-06 13:52 | 28.72311 | -13.39238 | 5819 ft | 236 kts | 226° |
| 2026-05-06 13:52 | 28.71089 | -13.40520 | 5657 ft | 241 kts | 226° |
| 2026-05-06 13:52 | 28.69885 | -13.41839 | 5479 ft | 239 kts | 236° |
| 2026-05-06 13:53 | 28.69260 | -13.43527 | 5305 ft | 230 kts | 267° |
| 2026-05-06 13:53 | 28.69390 | -13.45305 | 5176 ft | 225 kts | 286° |
| 2026-05-06 13:53 | 28.69836 | -13.47023 | 5029 ft | 229 kts | 289° |
| 2026-05-06 13:53 | 28.70335 | -13.48766 | 4871 ft | 233 kts | 290° |
| 2026-05-06 13:54 | 28.70828 | -13.50514 | 4689 ft | 230 kts | 290° |
| 2026-05-06 13:54 | 28.71304 | -13.52237 | 4521 ft | 226 kts | 290° |
| 2026-05-06 13:54 | 28.71767 | -13.53933 | 4357 ft | 224 kts | 290° |
| 2026-05-06 13:54 | 28.72227 | -13.55630 | 4212 ft | 224 kts | 290° |
| 2026-05-06 13:55 | 28.72683 | -13.57310 | 4057 ft | 225 kts | 290° |
| 2026-05-06 13:55 | 28.73141 | -13.59018 | 3902 ft | 226 kts | 290° |
| 2026-05-06 13:55 | 28.73593 | -13.60711 | 3763 ft | 219 kts | 290° |
| 2026-05-06 13:55 | 28.74025 | -13.62333 | 3594 ft | 209 kts | 290° |
| 2026-05-06 13:56 | 28.74438 | -13.63884 | 3441 ft | 200 kts | 290° |
| 2026-05-06 13:56 | 28.74839 | -13.65389 | 3316 ft | 199 kts | 291° |
| 2026-05-06 13:56 | 28.75324 | -13.66880 | 3172 ft | 201 kts | 308° |
| 2026-05-06 13:56 | 28.76363 | -13.67899 | 3066 ft | 199 kts | 330° |
| 2026-05-06 13:57 | 28.77524 | -13.68779 | 2916 ft | 202 kts | 328° |
| 2026-05-06 13:57 | 28.78799 | -13.69391 | 2734 ft | 199 kts | 1° |
| 2026-05-06 13:57 | 28.80077 | -13.68980 | 2635 ft | 186 kts | 26° |
| 2026-05-06 13:57 | 28.81206 | -13.68324 | 2493 ft | 177 kts | 27° |
| 2026-05-06 13:58 | 28.82267 | -13.67695 | 2385 ft | 167 kts | 27° |
| 2026-05-06 13:58 | 28.83280 | -13.67097 | 2239 ft | 165 kts | 28° |
| 2026-05-06 13:58 | 28.84302 | -13.66493 | 2065 ft | 164 kts | 28° |
| 2026-05-06 13:58 | 28.85317 | -13.65900 | 1868 ft | 164 kts | 28° |
| 2026-05-06 13:59 | 28.86318 | -13.65317 | 1644 ft | 158 kts | 29° |
| 2026-05-06 13:59 | 28.87256 | -13.64771 | 1468 ft | 144 kts | 28° |
| 2026-05-06 13:59 | 28.88110 | -13.64273 | 1290 ft | 133 kts | 29° |
| 2026-05-06 13:59 | 28.88916 | -13.63803 | 1092 ft | 128 kts | 30° |
| 2026-05-06 14:00 | 28.89732 | -13.63326 | 924 ft | 134 kts | 30° |
| 2026-05-06 14:00 | 28.90542 | -13.62855 | 745 ft | 134 kts | 31° |
| 2026-05-06 14:00 | 28.91362 | -13.62376 | 572 ft | 129 kts | 31° |
| 2026-05-06 14:00 | 28.92155 | -13.61911 | 376 ft | 128 kts | 31° |
| 2026-05-06 14:01 | 28.92941 | -13.61454 | 204 ft | 128 kts | 30° |
| 2026-05-06 14:01 | 28.93752 | -13.60986 | 61 ft | 131 kts | 28° |
| 2026-05-06 14:01 | 28.94509 | -13.60542 | 35 ft | 106 kts | 24° |
| 2026-05-06 14:01 | 28.95009 | -13.60255 | 47 ft | 45 kts | 26° |
| 2026-05-06 14:02 | 28.95235 | -13.60208 | 48 ft | 23 kts | 360° |
| 2026-05-06 14:02 | 28.95325 | -13.60252 | 49 ft | 14 kts | 281° |
| 2026-05-06 14:02 | 28.95273 | -13.60311 | 49 ft | 11 kts | 210° |
| 2026-05-06 14:02 | 28.95187 | -13.60360 | 48 ft | 18 kts | 206° |
| 2026-05-06 14:03 | 28.95098 | -13.60411 | 49 ft | 14 kts | 207° |
| 2026-05-06 14:03 | 28.95012 | -13.60460 | 49 ft | 12 kts | 207° |
| 2026-05-06 14:03 | 28.94940 | -13.60502 | 49 ft | 11 kts | 207° |
| 2026-05-06 14:03 | 28.94875 | -13.60550 | 49 ft | 11 kts | 238° |
| 2026-05-06 14:04 | 28.94893 | -13.60634 | 49 ft | 12 kts | 297° |
| 2026-05-06 14:04 | 28.94883 | -13.60712 | 48 ft | 9 kts | 244° |
| 2026-05-06 14:04 | 28.94892 | -13.60764 | 49 ft | 6 kts | 297° |
| 2026-05-06 14:04 | 28.94910 | -13.60803 | 49 ft | 3 kts | 297° |
| 2026-05-06 14:05 | 28.94913 | -13.60810 | 47 ft | 0 kts | 296° |